Tiempo atmosférico en la estación meteorológica de Ayamonte, Huelva (2 m.)



Fecha
DESCASC
Temp. máxima en grados centígrados (hora)
DESCASC
Temp. mínima en grados centígrados (hora)
DESCASC
Temp. media en grados centígrados
DESCASC
Racha de viento máxima en m/sg (hora)
DESCASC
Velocidad máxima media en intervalos de 10 minutos(hora)
DESCASC
Precipitaciones diarias en mm
DESCASC
Precipitaciones de 00:00 a 06:00 en mm
DESCASC
Precipitaciones de 06:00 a 12:00 en mm
DESCASC
Precipitaciones de 12:00 a 18:00 en mm
DESCASC
Precipitaciones de 18:00 a 24:00 en mm
DESCASC
18-08-2019 33.3 (14:10) 20.4 (08:30) 26.8 10 (11:00) 5 (16:00) 0 0 0 0 0
17-08-2019 36.6 (14:20) 20.7 (08:00) 28.6 8.61 (09:00) 4.44 (16:00) 0 0 0 0 0
16-08-2019 33.7 (14:20) 22.9 (08:00) 28.3 10.28 (04:10) 5 (15:40) 0 0 0 0 0
15-08-2019 33.1 (13:10) 21.7 (00:00) 27.4 8.61 (04:50) 4.17 (04:40) 0 0 0 0 0
14-08-2019 31.2 (13:20) 19 (00:00) 25.1 9.17 (18:40) 4.44 (18:40) 0 0 0 0 0
13-08-2019 35.6 (15:10) 18.8 (00:00) 27.2 9.72 (07:20) 4.72 (03:10) 0 0 0 0 0
12-08-2019 32.9 (16:10) 17.1 (00:00) 25 10.28 (04:10) 5.28 (02:40) 0 0 0 0 0
11-08-2019 31.3 (18:00) 19.2 (00:00) 25.3 13.61 (10:20) 5.83 (04:30) 0 0 0 0 0
10-08-2019 31.6 (14:40) 20.7 (00:00) 26.2 11.39 (21:50) 5.28 (17:30) 0 0 0 0 0
09-08-2019 28.6 (18:10) 20.1 (00:00) 24.4 10.83 (15:50) 6.39 (15:50) 0 0 0 0 0
08-08-2019 30.3 (12:40) 21.4 (00:00) 25.8 10 (19:00) 6.39 (19:10) 0 0 0 0 0
07-08-2019 29.9 (13:00) 20.8 (00:00) 25.3 8.33 (17:00) 5 (17:00) 0 0 0 0 0
06-08-2019 31 (17:10) 20.1 (00:00) 25.6 9.17 (08:00) 5.28 (17:30) 0 0 0 0 0
05-08-2019 30.8 (16:20) 18.4 (00:00) 24.6 9.17 (02:20) 5 (16:40) 0 0 0 0 0
04-08-2019 32.5 (13:40) 20.7 (00:00) 26.6 9.44 (07:10) 5.28 (17:20) 0 0 0 0 0
03-08-2019 29.2 (14:50) 18.9 (00:00) 24.1 8.89 (01:40) 4.44 (15:00) 0 0 0 0 0
02-08-2019 29.8 (13:20) 18.1 (00:00) 23.9 10.56 (02:40) 5.28 (02:40) 0 0 0 0 0
01-08-2019 32.3 (13:50) 19.5 (00:00) 25.9 9.17 (23:10) 5.28 (17:20) 0 0 0 0 0
31-07-2019 30.9 (15:30) 18.3 (00:00) 24.6 10.56 (01:10) 5 (00:50) 0 0 0 0 0
30-07-2019 34.1 (18:10) 16.9 (00:00) 25.5 12.22 (02:50) 5.83 (03:10) 0 0 0 0 0
29-07-2019 31.8 (20:10) 18.8 (00:00) 25.3 11.94 (08:00) 5.56 (08:00) 0 0 0 0 0
28-07-2019 28.6 (17:10) 19.3 (00:00) 23.9 9.44 (16:20) 5.83 (15:00) 0 0 0 0 0
27-07-2019 27.6 (16:40) 19.1 (00:00) 23.4 11.67 (15:50) 7.22 (15:00) 0 0 0 0 0
26-07-2019 31.8 (18:50) 19 (00:00) 25.4 10.28 (00:30) 5 (00:30) 0 0 0 0 0
25-07-2019 31.7 (13:50) 21.2 (00:00) 26.5 11.94 (23:59) 5.83 (18:20) 0 0 0 0 0
24-07-2019 29.6 (11:30) 21.9 (00:00) 25.8 6.39 (07:40) 3.89 (15:40) 0 0 0 0 0
23-07-2019 30.8 (16:00) 22.6 (00:00) 26.7 6.67 (15:20) 3.61 (15:10) 0 0 0 0 0
22-07-2019 32.7 (15:50) 20.8 (00:00) 26.8 6.39 (20:30) 3.89 (17:40) 0 0 0 0 0
21-07-2019 34 (13:30) 20.4 (00:00) 27.2 10 (04:20) 5.28 (09:20) 0 0 0 0 0

Gráficas

Temp. máximas Temp. mínimas Temp. medias Precipitaciones Rachas de viento máximas Velocidades máximas media en intervalos de 10 minutos

Datos horarios

Fecha y hora oficial Temperatura (ºC) Velocidad del viento (km/h) Dirección del viento Racha (km/h) Dirección de racha Precipitación (mm) Presión (hPa) Tendencia (hPa) Humedad (%)
2019-08-19 23:00:00 26.1 15 Noroeste 37 Norte 0 1014.3 1.6 44
2019-08-19 22:00:00 26.7 9 Noroeste 20 Norte 0 1013.2 0.1 45
2019-08-19 21:00:00 24.7 3 Sur 14 Sudoeste 0 1012.8 -0.5 54
2019-08-19 20:00:00 26.9 10 Sudoeste 20 Sudoeste 0 1012.7 -1 45
2019-08-19 19:00:00 27.3 14 Sudoeste 25 Sudoeste 0 1013.1 -1.2 46
2019-08-19 18:00:00 26.4 15 Sudoeste 28 Sudoeste 0 1013.3 -1.5 51
2019-08-19 17:00:00 27.2 19 Sudoeste 31 Sudoeste 0 1013.7 -1.3 47
2019-08-19 16:00:00 29 17 Sudoeste 30 Oeste 0 1014.3 -0.8 42
2019-08-19 15:00:00 28.9 14 Sudoeste 25 Sudoeste 0 1014.8 -0.3 48
2019-08-19 14:00:00 28.2 15 Sudoeste 23 Sudoeste 0 1015 0.2 48
2019-08-19 13:00:00 29.1 9 Noroeste 23 Norte 0 1015.1 0.6 36
2019-08-19 12:00:00 27.1 9 Norte 25 Noroeste 0 1015.1 0.6 42
2019-08-19 11:00:00 24 11 Norte 27 Norte 0 1014.8 0.3 50
2019-08-19 10:00:00 21.7 15 Noroeste 27 Noroeste 0 1014.5 0.5 58
2019-08-19 09:00:00 20.1 13 Norte 26 Norte 0 1014.5 0.8 63
2019-08-19 08:00:00 20 12 Noroeste 28 Norte 0 1014.5 0.8 66
2019-08-19 07:00:00 20.7 11 Noroeste 29 Noroeste 0 1014 0.3 69
2019-08-19 06:00:00 21.6 8 Noroeste 29 Noroeste 0 1013.7 -0.2 72
2019-08-19 05:00:00 22.6 12 Noroeste 30 Noroeste 0 1013.7 -0.4 73
2019-08-19 04:00:00 23.5 13 Noroeste 28 Norte 0 1013.7 -0.6 74
2019-08-19 03:00:00 24.2 11 Noroeste 32 Norte 0 1013.9 -0.3 72
2019-08-19 02:00:00 24.8 13 Noroeste 30 Noroeste 0 1014.1 0.5 71
2019-08-19 01:00:00 25.4 15 Noroeste 34 Noroeste 0 1014.3 1.6 69
2019-08-19 00:00:00 26.3 14 Noroeste 28 Noroeste 0 1014.2 2.1 65
2019-08-18 23:00:00 27.5 14 Noroeste 32 Noroeste 0 1013.6 1.6 60
2019-08-18 22:00:00 24.1 4 Noroeste 12 Oeste 0 1012.7 0.4 69
2019-08-18 21:00:00 24.8 6 Sudoeste 14 Sudoeste 0 1012.1 -0.4 65
2019-08-18 20:00:00 27.2 6 Sudoeste 21 Sudoeste 0 1012 -0.8 58
2019-08-18 19:00:00 28.8 14 Sudoeste 26 Sudoeste 0 1012.3 -0.8 51
2019-08-18 18:00:00 29.5 15 Sudoeste 30 Oeste 0 1012.5 -1.1 48
2019-08-18 17:00:00 30 17 Sudoeste 29 Sudoeste 0 1012.8 -0.9 47
2019-08-18 16:00:00 30 18 Sudoeste 28 Sudoeste 0 1013.1 -0.9 45
2019-08-18 15:00:00 30.8 15 Sudoeste 26 Sudoeste 0 1013.6 -0.5 45
2019-08-18 14:00:00 32.8 8 Noroeste 23 Norte 0 1013.7 0.1 40
2019-08-18 13:00:00 30.7 9 Norte 22 Norte 0 1014 0.9 46
2019-08-18 12:00:00 28.9 9 Noroeste 31 Noroeste 0 1014.1 1.4 52
2019-08-18 11:00:00 25.2 16 Noroeste 36 Noroeste 0 1013.6 1.4 63
2019-08-18 10:00:00 23.3 15 Norte 32 Noroeste 0 1013.1 1.8 69
2019-08-18 09:00:00 21.2 13 Noroeste 32 Norte 0 1012.7 1.6 79
2019-08-18 08:00:00 20.9 13 Noroeste 30 Norte 0 1012.2 0.9 77
2019-08-18 07:00:00 21.4 13 Noroeste 28 Norte 0 1011.3 -0.2 74
2019-08-18 06:00:00 21.7 12 Norte 33 Noroeste 0 1011.1 -0.9 73
2019-08-18 05:00:00 22.3 14 Noroeste 30 Noroeste 0 1011.3 -0.8 70
2019-08-18 04:00:00 23.4 12 Noroeste 26 Norte 0 1011.5 -0.5 65
2019-08-18 03:00:00 24.4 8 Noroeste 23 Norte 0 1012 0.2 61
2019-08-18 02:00:00 25.4 9 Noroeste 23 Noroeste 0 1012.1 0.5 57
2019-08-18 01:00:00 26.5 9 Noroeste 24 Norte 0 1012 1.2 52
2019-08-18 00:00:00 27.9 11 Norte 26 Noroeste 0 1011.8 1.4 46
2019-08-17 23:00:00 26.9 6 Noroeste 16 Oeste 0 1011.6 1.1 53
2019-08-17 22:00:00 24.7 3 Oeste 12 Sur 0 1010.8 -0.2 59
2019-08-17 21:00:00 26.5 6 Sudoeste 18 Sudoeste 0 1010.4 -1 51
2019-08-17 20:00:00 28.2 11 Sudoeste 21 Sudoeste 0 1010.5 -1.4 48
2019-08-17 19:00:00 29.9 12 Sudoeste 20 Sudoeste 0 1011 -1.5 45
2019-08-17 18:00:00 30.7 12 Sudoeste 22 Sudoeste 0 1011.4 -1.5 44
2019-08-17 17:00:00 30 13 Sudoeste 24 Sudoeste 0 1011.9 -1.1 43
2019-08-17 16:00:00 32.6 16 Sudoeste 27 Sudoeste 0 1012.5 -1.2 40
2019-08-17 15:00:00 31.6 14 Sudoeste 21 Sudoeste 0 1012.9 -1.4 42
2019-08-17 14:00:00 35 4 Noroeste 16 Noroeste 0 1013 -1.1 33
2019-08-17 13:00:00 31.8 8 Noroeste 17 Noroeste 0 1013.7 -0.7 43
2019-08-17 12:00:00 28.7 9 Norte 26 Noroeste 0 1014.3 0.2 51
2019-08-17 11:00:00 25.3 9 Norte 24 Norte 0 1014.1 0 60
2019-08-17 10:00:00 22.5 12 Norte 29 Noroeste 0 1014.4 0.6 67
2019-08-17 09:00:00 21.4 13 Noroeste 31 Norte 0 1014.1 0.4 69
2019-08-17 08:00:00 20.8 7 Norte 22 Norte 0 1014.1 0.3 68
2019-08-17 07:00:00 21.5 7 Norte 24 Noroeste 0 1013.8 -0.1 63
2019-08-17 06:00:00 22.2 9 Noroeste 30 Norte 0 1013.7 -0.2 59
2019-08-17 05:00:00 23.2 12 Noroeste 28 Norte 0 1013.8 -0.3 56
2019-08-17 04:00:00 24.1 11 Noroeste 27 Norte 0 1013.9 -0.2 53
2019-08-17 03:00:00 25.3 10 Norte 29 Noroeste 0 1013.9 -0.3 51
2019-08-17 02:00:00 26.8 13 Norte 29 Norte 0 1014.1 -0.1 47
2019-08-17 01:00:00 28 10 Noroeste 25 Noroeste 0 1014.1 0.5 46
2019-08-17 00:00:00 23.1 0 Calma 7 Sudoeste 0 1014.2 0.9 65
2019-08-16 23:00:00 25 4 Oeste 14 Oeste 0 1014.2 1 56
2019-08-16 22:00:00 24.8 4 Sudoeste 17 Sudoeste 0 1013.6 0.1 56
2019-08-16 21:00:00 25.8 12 Sudoeste 22 Sudoeste 0 1013.3 -0.8 54
2019-08-16 20:00:00 28.3 12 Sudoeste 23 Sudoeste 0 1013.2 -1.3 50
2019-08-16 19:00:00 28.8 14 Sudoeste 25 Sudoeste 0 1013.5 -1.4 49
2019-08-16 18:00:00 28.1 15 Sudoeste 28 Sudoeste 0 1014.1 -1 52
2019-08-16 17:00:00 28.9 16 Sudoeste 27 Oeste 0 1014.5 -0.6 48
2019-08-16 16:00:00 30.1 14 Sudoeste 29 Sudoeste 0 1014.9 -0.6 46
2019-08-16 15:00:00 29.1 15 Sudoeste 24 Sudoeste 0 1015.1 -0.8 47
2019-08-16 14:00:00 32.8 12 Sudoeste 19 Sudoeste 0 1015.1 -0.7 41
2019-08-16 13:00:00 32.2 5 Noroeste 19 Noroeste 0 1015.5 -0.3 43
2019-08-16 12:00:00 29.1 10 Noroeste 20 Norte 0 1015.9 0.3 49
2019-08-16 11:00:00 27.1 6 Norte 23 Noroeste 0 1015.8 0.6 54
2019-08-16 10:00:00 24.8 9 Norte 22 Norte 0 1015.8 1.4 58
2019-08-16 09:00:00 23.5 12 Norte 23 Norte 0 1015.6 1.6 62
2019-08-16 08:00:00 23 6 Noroeste 23 Nordeste 0 1015.2 1.1 62
2019-08-16 07:00:00 23.7 8 Noroeste 30 Noroeste 0 1014.4 0 59
2019-08-16 06:00:00 24.4 10 Noroeste 31 Noroeste 0 1014 -0.6 58
2019-08-16 05:00:00 25.1 14 Noroeste 37 Norte 0 1014.1 -0.8 55
2019-08-16 04:00:00 26.2 15 Noroeste 34 Noroeste 0 1014.4 -0.3 52
2019-08-16 03:00:00 27.4 13 Noroeste 29 Noroeste 0 1014.6 -0.1 49
2019-08-16 02:00:00 28.6 13 Norte 31 Norte 0 1014.9 0.4 47
2019-08-16 01:00:00 29.9 13 Noroeste 25 Noroeste 0 1014.7 0.5 44
2019-08-16 00:00:00 26.2 4 Oeste 10 Noroeste 0 1014.7 0.7 52
2019-08-15 23:00:00 26.6 2 Oeste 17 Oeste 0 1014.5 0.5 52
2019-08-15 22:00:00 26.1 10 Sudoeste 18 Sudoeste 0 1014.2 -0.2 52
2019-08-15 21:00:00 28 10 Sudoeste 20 Oeste 0 1014 -0.4 49
2019-08-15 20:00:00 30 10 Sudoeste 22 Sudoeste 0 1014 -0.9 45
2019-08-15 19:00:00 30 9 Sudoeste 18 Sudoeste 0 1014.4 -1 47
2019-08-15 18:00:00 29.9 11 Sudoeste 21 Oeste 0 1014.4 -1.5 48
2019-08-15 17:00:00 29.4 12 Sudoeste 21 Sudoeste 0 1014.9 -1.1 48
2019-08-15 16:00:00 28.4 14 Sudoeste 20 Sudoeste 0 1015.4 -0.8 50
2019-08-15 15:00:00 28.5 11 Sudoeste 18 Sur 0 1015.9 -0.4 49
2019-08-15 14:00:00 31.8 9 Sudoeste 18 Sudoeste 0 1016 -0.1 39
2019-08-15 13:00:00 32.8 5 Sur 18 Sur 0 1016.2 0.1 43
2019-08-15 12:00:00 30.2 5 Norte 18 Norte 0 1016.3 0.4 50
2019-08-15 11:00:00 27.1 6 Norte 24 Norte 0 1016.1 0.3 60
2019-08-15 10:00:00 24.3 10 Noroeste 29 Noroeste 0 1016.1 0.7 69
2019-08-15 09:00:00 22.4 12 Norte 31 Norte 0 1015.9 1.1 75
2019-08-15 08:00:00 21.7 10 Norte 22 Norte 0 1015.8 1.2 74
2019-08-15 07:00:00 22.6 5 Norte 22 Noroeste 0 1015.4 0.6 68
2019-08-15 06:00:00 23.5 7 Norte 31 Norte 0 1014.8 -0.2 64
2019-08-15 05:00:00 24.3 13 Norte 31 Noroeste 0 1014.6 -0.8 61
2019-08-15 04:00:00 25.5 13 Norte 28 Norte 0 1014.8 -0.6 58
2019-08-15 03:00:00 26.7 12 Noroeste 28 Noroeste 0 1015 -0.3 54
2019-08-15 02:00:00 27.6 12 Norte 27 Norte 0 1015.4 0.4 51
2019-08-15 01:00:00 28.8 12 Noroeste 23 Noroeste 0 1015.4 0.9 48
2019-08-15 00:00:00 26.8 7 Noroeste 14 Noroeste 0 1015.3 1.1 53
2019-08-14 23:00:00 24.7 4 Oeste 8 Oeste 0 1015 0.7 61
2019-08-14 22:00:00 25.1 5 Sudoeste 12 Sudoeste 0 1014.5 -0.5 58
2019-08-14 21:00:00 26.8 7 Sudoeste 17 Sudoeste 0 1014.2 -1.2 56
2019-08-14 20:00:00 29.9 13 Oeste 26 Sudoeste 0 1014.3 -1.5 52
2019-08-14 19:00:00 30.6 15 Sudoeste 33 Sudoeste 0 1015 -1.3 53
2019-08-14 18:00:00 30.5 15 Sudoeste 26 Sudoeste 0 1015.4 -1.6 55
2019-08-14 17:00:00 30.2 14 Sudoeste 21 Sudoeste 0 1015.8 -1.7 54
2019-08-14 16:00:00 30.6 12 Sudoeste 19 Sudoeste 0 1016.3 -1.6 54
2019-08-14 15:00:00 30.2 11 Sudoeste 19 Sudoeste 0 1017 -0.9 53
2019-08-14 14:00:00 30.1 10 Sur 18 Sur 0 1017.5 -0.3 53
2019-08-14 13:00:00 30.2 3 Sudoeste 26 Sudoeste 0 1017.9 0.1 48
2019-08-14 12:00:00 28.1 4 Norte 18 Noroeste 0 1017.9 0.7 50
2019-08-14 11:00:00 25.3 8 Norte 19 Noroeste 0 1017.8 1 48
2019-08-14 10:00:00 22.3 8 Norte 22 Norte 0 1017.8 1.3 52
2019-08-14 09:00:00 20.1 9 Norte 19 Noroeste 0 1017.2 1.1 57
2019-08-14 08:00:00 19.2 9 Norte 21 Noroeste 0 1016.8 1.4 57
2019-08-14 07:00:00 19.5 4 Norte 18 Norte 0 1016.5 0.9 56
2019-08-14 06:00:00 20.2 6 Norte 26 Norte 0 1016.1 0.3 53
2019-08-14 05:00:00 21.6 13 Noroeste 30 Norte 0 1015.4 -0.5 49
2019-08-14 04:00:00 22.7 14 Norte 31 Norte 0 1015.6 -0.2 46
2019-08-14 03:00:00 23.8 12 Noroeste 28 Norte 0 1015.8 0.2 45
2019-08-14 02:00:00 25 13 Noroeste 29 Norte 0 1015.9 0.5 44
2019-08-14 01:00:00 26.2 14 Noroeste 32 Norte 0 1015.8 1.4 44
2019-08-14 00:00:00 26.4 11 Noroeste 20 Noroeste 0 1015.6 1.5 48
2019-08-13 23:00:00 21.8 4 Oeste 19 Oeste 0 1015.4 1.4 65
2019-08-13 22:00:00 22.7 4 Sudoeste 15 Sudoeste 0 1014.4 0.1 59
2019-08-13 21:00:00 25.2 9 Sudoeste 22 Sudoeste 0 1014.1 -0.4 47
2019-08-13 20:00:00 28.8 12 Sudoeste 23 Oeste 0 1014 -0.9 39
2019-08-13 19:00:00 29 12 Sudoeste 26 Sudoeste 0 1014.3 -0.9 38
2019-08-13 18:00:00 29.6 15 Sudoeste 28 Sudoeste 0 1014.5 -0.9 37
2019-08-13 17:00:00 29 17 Sudoeste 28 Oeste 0 1014.9 -0.8 42
2019-08-13 16:00:00 28.7 13 Sudoeste 24 Sudeste 0 1015.2 -1.1 39
2019-08-13 15:00:00 34.7 6 Noroeste 17 Oeste 0 1015.4 -0.9 25
2019-08-13 14:00:00 33.3 9 Noroeste 24 Norte 0 1015.7 -0.3 28
2019-08-13 13:00:00 31.4 6 Norte 30 Norte 0 1016.3 0.6 33
2019-08-13 12:00:00 28.5 11 Norte 31 Noroeste 0 1016.3 0.6 39
2019-08-13 11:00:00 25 9 Norte 29 Noroeste 0 1016 0.8 47
2019-08-13 10:00:00 21.8 14 Norte 34 Norte 0 1015.7 1.1 56
2019-08-13 09:00:00 19.4 15 Noroeste 29 Noroeste 0 1015.7 1.1 62
2019-08-13 08:00:00 18.8 15 Norte 35 Norte 0 1015.2 0.5 63
2019-08-13 07:00:00 19.1 15 Norte 29 Norte 0 1014.6 -0.2 61
2019-08-13 06:00:00 19.5 14 Norte 31 Noroeste 0 1014.6 -1 58
2019-08-13 05:00:00 20.1 14 Norte 32 Norte 0 1014.7 -1.1 56
2019-08-13 04:00:00 21 13 Noroeste 33 Noroeste 0 1014.8 -0.7 53
2019-08-13 03:00:00 22 16 Noroeste 31 Norte 0 1015.6 0.5 49
2019-08-13 02:00:00 23.5 15 Noroeste 33 Noroeste 0 1015.8 0.8 45
2019-08-13 01:00:00 26.3 13 Noroeste 28 Noroeste 0 1015.5 1.2 37
2019-08-13 00:00:00 27.6 3 Norte 15 Norte 0 1015.1 1.1 29
2019-08-12 23:00:00 28.3 6 Norte 18 Noroeste 0 1015 1.4 28
2019-08-12 22:00:00 28.6 6 Norte 20 Noroeste 0 1014.3 0.5 28
2019-08-12 21:00:00 29.7 10 Noroeste 19 Norte 0 1014 -0.1 28
2019-08-12 20:00:00 27.6 13 Oeste 24 Sudoeste 0 1013.6 -0.9 39
2019-08-12 19:00:00 28 14 Sudoeste 30 Sudoeste 0 1013.8 -1.3 39
2019-08-12 18:00:00 29 17 Oeste 31 Sudoeste 0 1014.1 -1.9 38
2019-08-12 17:00:00 29.4 15 Oeste 30 Sudoeste 0 1014.5 -2 37
2019-08-12 16:00:00 31.9 8 Noroeste 23 Noroeste 0 1015.1 -2 26
2019-08-12 15:00:00 30.8 6 Norte 31 Noroeste 0 1016 -1.3 29
2019-08-12 14:00:00 29.4 8 Norte 36 Noroeste 0 1016.5 -0.9 31
2019-08-12 13:00:00 27.5 10 Norte 33 Norte 0 1017.1 -0.2 37
2019-08-12 12:00:00 24.9 9 Norte 26 Norte 0 1017.3 0.2 46
2019-08-12 11:00:00 22.4 5 Norte 32 Noroeste 0 1017.4 0.6 52
2019-08-12 10:00:00 19.7 9 Norte 33 Norte 0 1017.3 0.9 61
2019-08-12 09:00:00 18 14 Norte 29 Norte 0 1017.1 0.7 67
2019-08-12 08:00:00 17.2 10 Norte 29 Norte 0 1016.8 0 68
2019-08-12 07:00:00 17.6 12 Norte 33 Noroeste 0 1016.4 -0.8 65
2019-08-12 06:00:00 18.2 15 Noroeste 31 Norte 0 1016.4 -1.3 63
2019-08-12 05:00:00 19 15 Noroeste 37 Norte 0 1016.8 -1.2 59
2019-08-12 04:00:00 20 15 Norte 34 Noroeste 0 1017.2 -0.7 55
2019-08-12 03:00:00 21 18 Noroeste 36 Norte 0 1017.7 -0.1 51
2019-08-12 02:00:00 21.9 15 Noroeste 36 Norte 0 1018 0.8 47
2019-08-12 01:00:00 23.3 14 Norte 34 Noroeste 0 1017.9 1.4 41
2019-08-12 00:00:00 24.9 13 Norte 28 Norte 0 1017.8 1.9 38
2019-08-11 23:00:00 25.8 10 Norte 26 Noroeste 0 1017.2 1.6 35
2019-08-11 22:00:00 26.8 8 Norte 24 Noroeste 0 1016.5 0.7 33
2019-08-11 21:00:00 27.5 4 Norte 30 Noroeste 0 1015.9 0.1 33
2019-08-11 20:00:00 28.6 10 Norte 30 Norte 0 1015.6 -0.6 33
2019-08-11 19:00:00 29.9 15 Noroeste 31 Noroeste 0 1015.8 -1.2 32
2019-08-11 18:00:00 31.3 10 Noroeste 28 Noroeste 0 1015.8 -2 31
2019-08-11 17:00:00 30.5 10 Norte 30 Norte 0 1016.2 -1.9 30
2019-08-11 16:00:00 29.5 12 Noroeste 33 Noroeste 0 1017 -1.5 32
2019-08-11 15:00:00 28.6 15 Noroeste 37 Norte 0 1017.8 -0.4 34
2019-08-11 14:00:00 28.5 15 Noroeste 32 Noroeste 0 1018.1 0.7 35
2019-08-11 13:00:00 26.3 16 Norte 39 Noroeste 0 1018.5 1.4 39
2019-08-11 12:00:00 25 16 Norte 42 Norte 0 1018.2 1 43
2019-08-11 11:00:00 23.5 16 Norte 49 Noroeste 0 1017.4 0.3 52
2019-08-11 10:00:00 20.9 14 Norte 40 Norte 0 1017.1 0.3 61
2019-08-11 09:00:00 19.6 14 Norte 42 Norte 0 1017.2 0.6 69
2019-08-11 08:00:00 19.2 17 Norte 36 Norte 0 1017.1 0.6 66
2019-08-11 07:00:00 19.6 17 Norte 40 Norte 0 1016.8 0.3 61
2019-08-11 06:00:00 20 17 Norte 39 Noroeste 0 1016.6 0 62
2019-08-11 05:00:00 20.6 17 Noroeste 43 Norte 0 1016.5 -0.5 59
2019-08-11 04:00:00 20.9 17 Noroeste 35 Noroeste 0 1016.5 -0.8 54
2019-08-11 03:00:00 21.4 15 Norte 35 Norte 0 1016.6 -0.4 53
2019-08-11 02:00:00 22.3 17 Noroeste 40 Noroeste 0 1017 0.5 49
2019-08-11 01:00:00 23.1 18 Noroeste 39 Norte 0 1017.3 1.7 47
2019-08-11 00:00:00 23.9 14 Noroeste 32 Norte 0 1017 2.4 47
2019-08-10 23:00:00 24.5 15 Noroeste 40 Noroeste 0 1016.5 1.9 46
2019-08-10 22:00:00 26.5 19 Noroeste 41 Noroeste 0 1015.6 0.9 43
2019-08-10 21:00:00 30 11 Noroeste 26 Noroeste 0 1014.6 -0.7 33
2019-08-10 20:00:00 28.4 10 Sudoeste 24 Sudoeste 0 1014.6 -1.4 44
2019-08-10 19:00:00 29.2 17 Sudoeste 29 Sudoeste 0 1014.7 -2 40
2019-08-10 18:00:00 29 19 Sudoeste 33 Sudoeste 0 1015.3 -2.2 39
2019-08-10 17:00:00 30.4 17 Sudoeste 30 Sudoeste 0 1016 -1.9 38
2019-08-10 16:00:00 29.7 17 Sudoeste 27 Sudoeste 0 1016.7 -1.7 40
2019-08-10 15:00:00 29.4 16 Sudoeste 27 Sudoeste 0 1017.5 -1.2 41
2019-08-10 14:00:00 29.8 8 Noroeste 22 Norte 0 1017.9 -0.6 34
2019-08-10 13:00:00 28 12 Noroeste 26 Noroeste 0 1018.4 0.1 40
2019-08-10 12:00:00 26.4 10 Norte 26 Noroeste 0 1018.7 0.8 48
2019-08-10 11:00:00 25.1 8 Norte 30 Noroeste 0 1018.5 0.8 53
2019-08-10 10:00:00 23.3 9 Norte 25 Noroeste 0 1018.3 0.7 61
2019-08-10 09:00:00 21.4 11 Norte 28 Norte 0 1017.9 0.6 69
2019-08-10 08:00:00 20.8 9 Norte 26 Noroeste 0 1017.7 0.3 72
2019-08-10 07:00:00 21 10 Noroeste 24 Noroeste 0 1017.6 0.3 70
2019-08-10 06:00:00 21.4 11 Norte 25 Norte 0 1017.3 -0.1 68
2019-08-10 05:00:00 21.8 9 Noroeste 30 Norte 0 1017.4 -0.3 67
2019-08-10 04:00:00 22.2 10 Noroeste 26 Noroeste 0 1017.3 -0.4 66
2019-08-10 03:00:00 22.8 10 Noroeste 28 Norte 0 1017.4 0.2 65
2019-08-10 02:00:00 23.6 12 Noroeste 26 Norte 0 1017.7 1 61
2019-08-10 01:00:00 24.7 9 Norte 20 Noroeste 0 1017.7 1.8 58
2019-08-10 00:00:00 26.3 5 Norte 19 Noroeste 0 1017.2 2.3 59
2019-08-09 23:00:00 26.6 6 Noroeste 17 Noroeste 0 1016.7 2.2 62
2019-08-09 22:00:00 23.5 2 Sudoeste 19 Sudoeste 0 1015.9 1.2 75
2019-08-09 21:00:00 23.9 10 Sudoeste 25 Sudoeste 0 1014.9 -0.3 74
2019-08-09 20:00:00 26.7 14 Sudoeste 32 Sudoeste 0 1014.5 -1.1 67
2019-08-09 19:00:00 27.9 18 Sudoeste 31 Oeste 0 1014.7 -1.5 63
2019-08-09 18:00:00 27.7 13 Sudoeste 34 Sudoeste 0 1015.2 -1.4 65
2019-08-09 17:00:00 27.2 22 Sudoeste 37 Sudoeste 0 1015.6 -1.4 68
2019-08-09 16:00:00 25.8 22 Sudoeste 39 Sudoeste 0 1016.2 -0.8 70
2019-08-09 15:00:00 26.9 17 Sudoeste 31 Sudoeste 0 1016.6 0 69
2019-08-09 14:00:00 26.9 17 Sudoeste 32 Sudoeste 0 1017 0.6 67
2019-08-09 13:00:00 25.8 15 Sudoeste 25 Sudoeste 0 1017 0.4 67
2019-08-09 12:00:00 25.6 12 Sudoeste 19 Sur 0 1016.6 0.3 64
2019-08-09 11:00:00 27.3 4 Noroeste 14 Oeste 0 1016.4 0.7 60
2019-08-09 10:00:00 25.1 6 Oeste 14 Oeste 0 1016.6 1.2 68
2019-08-09 09:00:00 22.3 4 Sudoeste 8 Oeste 0 1016.3 1 85
2019-08-09 08:00:00 20.3 3 Sur 5 Sur 0 1015.7 0.7 89
2019-08-09 07:00:00 20.6 2 Sudoeste 9 Norte 0 1015.4 0.3 86
2019-08-09 06:00:00 21.4 2 Norte 6 Noroeste 0 1015.3 0.1 86
2019-08-09 05:00:00 21.5 0 Calma 8 Sudeste 0 1015 -0.1 83
2019-08-09 04:00:00 22 3 Sur 12 Norte 0 1015.1 0.3 78
2019-08-09 03:00:00 23.4 3 Noroeste 13 Noroeste 0 1015.2 1 74
2019-08-09 02:00:00 24.4 6 Noroeste 13 Norte 0 1015.1 1.4 71
2019-08-09 01:00:00 25.3 5 Noroeste 15 Noroeste 0 1014.8 2.2 68
2019-08-09 00:00:00 25.6 4 Noroeste 12 Noroeste 0 1014.2 2.5 70
2019-08-08 23:00:00 23.5 4 Oeste 12 Oeste 0 1013.7 2.1 74
2019-08-08 22:00:00 24 10 Oeste 30 Sudoeste 0 1012.6 0.6 72
2019-08-08 21:00:00 25.1 15 Sudoeste 32 Sudoeste 0 1011.7 -0.9 68
2019-08-08 20:00:00 25.8 19 Sudoeste 35 Oeste 0 1011.6 -1.4 64
2019-08-08 19:00:00 26.8 22 Sudoeste 36 Sudoeste 0 1012 -1.7 60
2019-08-08 18:00:00 27.2 19 Sudoeste 31 Oeste 0 1012.6 -1.4 60
2019-08-08 17:00:00 28.8 17 Sudoeste 28 Sudoeste 0 1013 -1.2 52
2019-08-08 16:00:00 29.3 17 Sudoeste 28 Sudoeste 0 1013.7 -0.7 49
2019-08-08 15:00:00 28.6 16 Sudoeste 27 Oeste 0 1014 -0.3 50
2019-08-08 14:00:00 27.8 16 Sudoeste 23 Sudoeste 0 1014.2 0.2 56
2019-08-08 13:00:00 28 12 Sudoeste 19 Oeste 0 1014.4 0.5 56
2019-08-08 12:00:00 28.1 6 Noroeste 16 Norte 0 1014.3 0.5 55
2019-08-08 11:00:00 25.6 9 Noroeste 24 Norte 0 1014 0.6 65
2019-08-08 10:00:00 23.1 8 Norte 20 Noroeste 0 1013.9 0.6 73
2019-08-08 09:00:00 22.2 8 Norte 21 Noroeste 0 1013.8 0.8 77
2019-08-08 08:00:00 21.4 7 Norte 19 Noroeste 0 1013.4 0.4 76
2019-08-08 07:00:00 21.8 5 Norte 18 Norte 0 1013.3 -0.1 72
2019-08-08 06:00:00 22.3 4 Norte 18 Noroeste 0 1013 -0.7 69
2019-08-08 05:00:00 22.8 5 Norte 17 Noroeste 0 1013 -1.1 66
2019-08-08 04:00:00 23.6 4 Norte 15 Nordeste 0 1013.4 -0.7 63
2019-08-08 03:00:00 24.2 5 Norte 15 Norte 0 1013.7 -0.1 62
2019-08-08 02:00:00 24.6 6 Norte 13 Noroeste 0 1014.1 0.6 62
2019-08-08 01:00:00 22.2 0 Calma 5 Sur 0 1014.1 1.3 77
2019-08-08 00:00:00 22.8 3 Sur 6 Sudoeste 0 1013.8 1.4 71
2019-08-07 23:00:00 24.2 4 Sudoeste 10 Sudoeste 0 1013.5 1.4 65
2019-08-07 22:00:00 25.3 5 Oeste 13 Oeste 0 1012.8 0.3 60
2019-08-07 21:00:00 27.8 7 Sudoeste 21 Oeste 0 1012.4 -0.2 53
2019-08-07 20:00:00 29.3 10 Oeste 24 Oeste 0 1012.1 -1 51
2019-08-07 19:00:00 28.3 15 Sudoeste 26 Sudoeste 0 1012.5 -0.8 54
2019-08-07 18:00:00 27 16 Sudoeste 29 Sudoeste 0 1012.6 -1.1 54
2019-08-07 17:00:00 27.7 18 Sudoeste 30 Sudoeste 0 1013.1 -0.9 54
2019-08-07 16:00:00 27.7 17 Sudoeste 27 Sudoeste 0 1013.3 -0.6 53
2019-08-07 15:00:00 27.7 14 Sudoeste 24 Sudoeste 0 1013.7 -0.1 53
2019-08-07 14:00:00 28 13 Oeste 22 Oeste 0 1014 0.5 53
2019-08-07 13:00:00 29.5 6 Noroeste 20 Norte 0 1013.9 0.7 50
2019-08-07 12:00:00 27.3 8 Noroeste 19 Norte 0 1013.8 1.1 56
2019-08-07 11:00:00 26.4 8 Noroeste 26 Norte 0 1013.5 1.3 61
2019-08-07 10:00:00 23.7 14 Norte 24 Noroeste 0 1013.2 1.6 71
2019-08-07 09:00:00 21.8 9 Noroeste 22 Noroeste 0 1012.7 1 78
2019-08-07 08:00:00 21 10 Noroeste 25 Norte 0 1012.2 0.6 78
2019-08-07 07:00:00 21.3 10 Noroeste 27 Norte 0 1011.6 0 76
2019-08-07 06:00:00 21.6 11 Noroeste 25 Noroeste 0 1011.7 0.1 75
2019-08-07 05:00:00 22 10 Norte 27 Noroeste 0 1011.6 -0.2 72
2019-08-07 04:00:00 22.7 13 Noroeste 27 Norte 0 1011.6 -0.3 68
2019-08-07 03:00:00 23.6 10 Noroeste 25 Noroeste 0 1011.6 -0.4 65
2019-08-07 02:00:00 24.2 11 Noroeste 27 Norte 0 1011.8 0.3 62
2019-08-07 01:00:00 25 12 Noroeste 29 Norte 0 1011.9 1.3 58
2019-08-07 00:00:00 26.4 10 Noroeste 26 Norte 0 1012 1.8 52
2019-08-06 23:00:00 27.9 10 Noroeste 23 Norte 0 1011.5 1.6 48
2019-08-06 22:00:00 28.5 8 Noroeste 18 Oeste 0 1010.6 0.3 48
2019-08-06 21:00:00 28.4 10 Oeste 17 Oeste 0 1010.2 -0.5 43
2019-08-06 20:00:00 30.4 13 Oeste 24 Oeste 0 1009.9 -1.4 41
2019-08-06 19:00:00 29.7 14 Sudoeste 32 Sudoeste 0 1010.3 -1.7 46
2019-08-06 18:00:00 30.8 19 Sudoeste 33 Sudoeste 0 1010.7 -2 41
2019-08-06 17:00:00 30.9 18 Sudoeste 32 Sudoeste 0 1011.3 -1.9 41
2019-08-06 16:00:00 29.5 19 Sudoeste 31 Sudoeste 0 1012 -1.5 47
2019-08-06 15:00:00 30.7 14 Sudoeste 29 Oeste 0 1012.7 -0.5 46
2019-08-06 14:00:00 29.7 14 Oeste 28 Oeste 0 1013.2 -0.1 48
2019-08-06 13:00:00 26 14 Sudoeste 25 Sudoeste 0 1013.5 -0.1 59
2019-08-06 12:00:00 28.8 0 Calma 13 Noroeste 0 1013.2 0.2 50
2019-08-06 11:00:00 25.8 6 Norte 20 Noroeste 0 1013.3 0.3 60
2019-08-06 10:00:00 23.7 4 Norte 23 Norte 0 1013.6 1.1 69
2019-08-06 09:00:00 21.1 12 Norte 32 Noroeste 0 1013 0.7 79
2019-08-06 08:00:00 20.2 14 Norte 33 Noroeste 0 1013 0.3 82
2019-08-06 07:00:00 20.5 11 Noroeste 29 Noroeste 0 1012.5 -0.6 78
2019-08-06 06:00:00 21 9 Noroeste 21 Norte 0 1012.3 -0.7 72
2019-08-06 05:00:00 21.6 11 Noroeste 28 Noroeste 0 1012.7 -0.4 67
2019-08-06 04:00:00 22.5 9 Noroeste 31 Noroeste 0 1013.1 0.3 60
2019-08-06 03:00:00 23.3 13 Norte 28 Norte 0 1013 0.1 56
2019-08-06 02:00:00 24.3 13 Noroeste 31 Norte 0 1013.1 0.5 53
2019-08-06 01:00:00 25.5 14 Norte 31 Noroeste 0 1012.8 1.1 51
2019-08-06 00:00:00 26.5 9 Noroeste 24 Noroeste 0 1012.9 1.6 48
2019-08-05 23:00:00 24.1 5 Noroeste 11 Norte 0 1012.6 1.4 55
2019-08-05 22:00:00 24.3 4 Oeste 12 Sudoeste 0 1011.7 0.2 53
2019-08-05 21:00:00 25.5 7 Sudoeste 17 Sudoeste 0 1011.3 -0.5 52
2019-08-05 20:00:00 26.7 10 Sudoeste 18 Sudoeste 0 1011.2 -1.3 51
2019-08-05 19:00:00 27.8 12 Sudoeste 22 Sudoeste 0 1011.5 -1.4 47
2019-08-05 18:00:00 28.1 15 Sudoeste 27 Oeste 0 1011.8 -1.5 48
2019-08-05 17:00:00 29.7 16 Sudoeste 27 Sudoeste 0 1012.5 -1.1 42
2019-08-05 16:00:00 30.2 17 Sudoeste 30 Oeste 0 1012.9 -1 42
2019-08-05 15:00:00 30.2 15 Sudoeste 23 Sudoeste 0 1013.3 -0.9 43
2019-08-05 14:00:00 28 12 Sudoeste 21 Sudoeste 0 1013.6 -0.6 45
2019-08-05 13:00:00 30.2 7 Norte 23 Norte 0 1013.9 -0.6 39
2019-08-05 12:00:00 26.2 13 Norte 25 Norte 0 1014.2 -0.2 49
2019-08-05 11:00:00 23.9 13 Norte 29 Noroeste 0 1014.2 0.2 57
2019-08-05 10:00:00 21.1 12 Norte 26 Norte 0 1014.5 0.5 64
2019-08-05 09:00:00 19.6 10 Noroeste 25 Norte 0 1014.4 0.7 70
2019-08-05 08:00:00 18.5 12 Norte 24 Noroeste 0 1014 0.2 73
2019-08-05 07:00:00 18.9 10 Norte 26 Norte 0 1014 0.2 72
2019-08-05 06:00:00 19.5 12 Norte 29 Norte 0 1013.7 -0.3 69
2019-08-05 05:00:00 20.4 14 Norte 30 Noroeste 0 1013.8 -0.3 65
2019-08-05 04:00:00 21.1 15 Norte 30 Noroeste 0 1013.8 -0.2 61
2019-08-05 03:00:00 22 12 Noroeste 33 Noroeste 0 1014 0.2 58
2019-08-05 02:00:00 22.8 14 Noroeste 33 Noroeste 0 1014.1 0.8 56
2019-08-05 01:00:00 24.1 14 Noroeste 31 Norte 0 1014 1.3 53
2019-08-05 00:00:00 25.7 13 Noroeste 29 Noroeste 0 1013.8 1.5 49
2019-08-04 23:00:00 27.3 13 Noroeste 30 Noroeste 0 1013.3 1.4 44
2019-08-04 22:00:00 29 14 Noroeste 28 Norte 0 1012.7 0.4 44
2019-08-04 21:00:00 26.5 5 Sudoeste 25 Sudoeste 0 1012.3 0.2 53
2019-08-04 20:00:00 29.1 15 Sudoeste 30 Sudoeste 0 1011.9 -0.8 45
2019-08-04 19:00:00 26.2 12 Sudoeste 29 Oeste 0 1012.3 -1 54
2019-08-04 18:00:00 31.2 16 Oeste 33 Oeste 0 1012.1 -1.7 43
2019-08-04 17:00:00 30 18 Sudoeste 30 Sudoeste 0 1012.7 -1.4 45
2019-08-04 16:00:00 30 17 Sudoeste 29 Sudoeste 0 1013.3 -1.2 45
2019-08-04 15:00:00 29.8 17 Sudoeste 28 Sudoeste 0 1013.8 -0.9 47
2019-08-04 14:00:00 27.5 14 Sudoeste 25 Sudoeste 0 1014.1 -0.5 51
2019-08-04 13:00:00 30 10 Norte 22 Noroeste 0 1014.5 -0.2 42
2019-08-04 12:00:00 28.3 11 Noroeste 24 Norte 0 1014.7 0.6 46
2019-08-04 11:00:00 26 6 Norte 24 Norte 0 1014.6 0.9 54
2019-08-04 10:00:00 23.7 8 Norte 24 Norte 0 1014.7 1.4 64
2019-08-04 09:00:00 21.5 13 Norte 30 Noroeste 0 1014.1 0.8 74
2019-08-04 08:00:00 20.8 11 Norte 34 Noroeste 0 1013.7 0.4 77
2019-08-04 07:00:00 20.9 13 Noroeste 32 Norte 0 1013.3 0.1 76
2019-08-04 06:00:00 21.3 13 Norte 32 Norte 0 1013.3 0.2 74
2019-08-04 05:00:00 22 11 Noroeste 28 Norte 0 1013.3 0.2 69
2019-08-04 04:00:00 22.6 11 Norte 33 Norte 0 1013.2 0.3 68
2019-08-04 03:00:00 23.4 13 Norte 30 Noroeste 0 1013.1 0 65
2019-08-04 02:00:00 24.2 14 Norte 30 Noroeste 0 1013.1 0.4 62
2019-08-04 01:00:00 25.3 16 Norte 30 Noroeste 0 1012.9 1.2 59
2019-08-04 00:00:00 26.6 10 Noroeste 21 Norte 0 1013.1 1.7 56
2019-08-03 23:00:00 24.8 4 Noroeste 11 Noroeste 0 1012.7 1.4 53
2019-08-03 22:00:00 23.5 0 Calma 9 Sudoeste 0 1011.7 -0.1 63
2019-08-03 21:00:00 23.9 6 Sudoeste 18 Oeste 0 1011.4 -1 60
2019-08-03 20:00:00 27.5 11 Sudoeste 23 Sudoeste 0 1011.3 -1.7 48
2019-08-03 19:00:00 27.1 14 Sudoeste 27 Oeste 0 1011.8 -1.7 48
2019-08-03 18:00:00 27.6 15 Sudoeste 28 Sudoeste 0 1012.4 -1.2 50
2019-08-03 17:00:00 25.8 15 Sudoeste 25 Sudoeste 0 1013 -1 57
2019-08-03 16:00:00 27.3 14 Sudoeste 27 Sudoeste 0 1013.5 -0.7 52
2019-08-03 15:00:00 27.6 16 Sudoeste 24 Sudoeste 0 1013.6 -0.4 49
2019-08-03 14:00:00 27.5 15 Sudoeste 24 Sudoeste 0 1014 -0.1 54
2019-08-03 13:00:00 26.9 12 Sudoeste 17 Sudoeste 0 1014.2 0.4 50
2019-08-03 12:00:00 27.4 8 Noroeste 21 Noroeste 0 1014 0.6 47
2019-08-03 11:00:00 24.2 11 Norte 24 Norte 0 1014.1 1.2 55
2019-08-03 10:00:00 21.7 10 Norte 31 Noroeste 0 1013.8 1.3 64
2019-08-03 09:00:00 19.8 13 Norte 32 Noroeste 0 1013.4 1.1 69
2019-08-03 08:00:00 18.9 12 Noroeste 24 Noroeste 0 1012.9 0.5 69
2019-08-03 07:00:00 19.5 9 Norte 23 Noroeste 0 1012.5 -0.2 65
2019-08-03 06:00:00 20.2 9 Norte 23 Noroeste 0 1012.3 -0.5 62
2019-08-03 05:00:00 21 12 Norte 27 Noroeste 0 1012.4 -0.4 62
2019-08-03 04:00:00 21.7 10 Norte 23 Norte 0 1012.7 -0.1 61
2019-08-03 03:00:00 22.7 8 Noroeste 26 Norte 0 1012.8 0.2 59
2019-08-03 02:00:00 23.6 12 Noroeste 32 Norte 0 1012.8 0.4 56
2019-08-03 01:00:00 24.4 8 Noroeste 25 Norte 0 1012.8 1 54
2019-08-03 00:00:00 26.3 11 Noroeste 22 Noroeste 0 1012.6 0.8 49
2019-08-02 23:00:00 24.5 4 Noroeste 9 Oeste 0 1012.4 0.3 47
2019-08-02 22:00:00 24 6 Oeste 14 Oeste 0 1011.8 -0.7 51
2019-08-02 21:00:00 26.3 8 Sudoeste 17 Sudoeste 0 1011.8 -1.1 48
2019-08-02 20:00:00 27.6 9 Sudoeste 19 Sudoeste 0 1012.1 -1.2 48
2019-08-02 19:00:00 26.6 10 Sudoeste 23 Oeste 0 1012.5 -1.3 51
2019-08-02 18:00:00 27.4 13 Sudoeste 26 Sudoeste 0 1012.9 -1 51
2019-08-02 17:00:00 27.5 17 Sudoeste 27 Sudoeste 0 1013.3 -1 46
2019-08-02 16:00:00 28.2 17 Sudoeste 28 Sudoeste 0 1013.8 -0.7 47
2019-08-02 15:00:00 27.8 14 Sudoeste 23 Sudoeste 0 1013.9 -0.6 44
2019-08-02 14:00:00 28.7 13 Sudoeste 21 Sudoeste 0 1014.3 -0.4 41
2019-08-02 13:00:00 29.3 9 Noroeste 23 Noroeste 0 1014.5 0.1 42
2019-08-02 12:00:00 26.5 10 Noroeste 28 Noroeste 0 1014.5 0.5 50
2019-08-02 11:00:00 23.5 9 Noroeste 31 Norte 0 1014.7 1 59
2019-08-02 10:00:00 21.1 11 Norte 33 Noroeste 0 1014.4 1 68
2019-08-02 09:00:00 19.1 15 Noroeste 34 Noroeste 0 1014 0.9 78
2019-08-02 08:00:00 18.2 13 Norte 28 Noroeste 0 1013.7 0.7 79
2019-08-02 07:00:00 18.5 10 Noroeste 33 Norte 0 1013.4 0.5 75
2019-08-02 06:00:00 19.1 10 Noroeste 30 Noroeste 0 1013.1 0 68
2019-08-02 05:00:00 20 15 Noroeste 36 Norte 0 1013 -0.5 62
2019-08-02 04:00:00 21.2 13 Norte 34 Noroeste 0 1012.9 -0.3 58
2019-08-02 03:00:00 22.5 16 Noroeste 38 Norte 0 1013.1 -0.1 53
2019-08-02 02:00:00 23.8 15 Norte 35 Noroeste 0 1013.5 0.8 50
2019-08-02 01:00:00 25.3 16 Noroeste 32 Norte 0 1013.2 1.5 48
2019-08-02 00:00:00 26.6 14 Noroeste 33 Noroeste 0 1013.2 2.2 46
2019-08-01 23:00:00 28.1 9 Noroeste 22 Norte 0 1012.7 2 44
2019-08-01 22:00:00 23.1 6 Sudoeste 17 Oeste 0 1011.7 1 59
2019-08-01 21:00:00 27.6 12 Sudoeste 22 Sudoeste 0 1011 0.1 41
2019-08-01 20:00:00 28.4 13 Sudoeste 22 Oeste 0 1010.7 -0.9 41
2019-08-01 19:00:00 28 14 Sudoeste 25 Oeste 0 1010.7 -1.1 45
2019-08-01 18:00:00 29.5 15 Sudoeste 32 Sudoeste 0 1010.9 -1.4 43
2019-08-01 17:00:00 28 17 Sudoeste 27 Sudoeste 0 1011.6 -1 45
2019-08-01 16:00:00 28.6 13 Sudoeste 22 Sudoeste 0 1011.8 -1.1 44
2019-08-01 15:00:00 27.6 12 Sudoeste 27 Sudoeste 0 1012.3 -0.8 47
2019-08-01 14:00:00 30.4 12 Sur 17 Sudoeste 0 1012.6 -0.4 46
2019-08-01 13:00:00 30 6 Noroeste 14 Norte 0 1012.9 0.2 43
2019-08-01 12:00:00 28.4 5 Noroeste 17 Norte 0 1013.1 0.7 47
2019-08-01 11:00:00 25.8 6 Norte 19 Norte 0 1013 0.9 50
2019-08-01 10:00:00 22.8 6 Norte 21 Norte 0 1012.7 1.4 55
2019-08-01 09:00:00 20.7 8 Norte 22 Noroeste 0 1012.4 1.4 59
2019-08-01 08:00:00 19.6 6 Norte 19 Norte 0 1012.1 1.1 60
2019-08-01 07:00:00 20.3 8 Norte 18 Noroeste 0 1011.3 0.1 56
2019-08-01 06:00:00 21 7 Norte 20 Norte 0 1011 -0.3 55
2019-08-01 05:00:00 22 7 Norte 20 Norte 0 1011 -0.5 53
2019-08-01 04:00:00 22.8 6 Norte 17 Noroeste 0 1011.2 -0.3 52
2019-08-01 03:00:00 23.3 6 Noroeste 13 Norte 0 1011.3 0.1 51
2019-08-01 02:00:00 21.5 3 Noroeste 6 Norte 0 1011.5 0.7 61
2019-08-01 01:00:00 22.1 0 Calma 6 Sudeste 0 1011.5 1.8 62
2019-08-01 00:00:00 23.4 0 Calma 8 Noroeste 0 1011.2 1.9 58
2019-07-31 23:00:00 25.5 3 Noroeste 10 Oeste 0 1010.8 1.5 55
2019-07-31 22:00:00 25.6 8 Oeste 16 Oeste 0 1009.7 0.2 56
2019-07-31 21:00:00 27.6 8 Sudoeste 18 Oeste 0 1009.3 -0.6 54
2019-07-31 20:00:00 28.8 12 Oeste 21 Sudoeste 0 1009.3 -1 54
2019-07-31 19:00:00 28.9 13 Sudoeste 23 Sudoeste 0 1009.5 -1.6 53
2019-07-31 18:00:00 29.4 14 Sudoeste 23 Sudoeste 0 1009.9 -1.4 51
2019-07-31 17:00:00 29.9 11 Sudoeste 18 Sudoeste 0 1010.3 -1.4 46
2019-07-31 16:00:00 30.1 11 Sudoeste 20 Oeste 0 1011.1 -0.9 44
2019-07-31 15:00:00 30.2 12 Sudoeste 18 Sudoeste 0 1011.3 -0.8 46
2019-07-31 14:00:00 29.1 8 Sudoeste 18 Sudoeste 0 1011.7 -0.1 46
2019-07-31 13:00:00 29.1 6 Sur 17 Sudeste 0 1012 0.5 46
2019-07-31 12:00:00 29.3 3 Noroeste 15 Noroeste 0 1012.1 0.9 44
2019-07-31 11:00:00 25 8 Noroeste 21 Norte 0 1011.8 0.7 47
2019-07-31 10:00:00 21.7 11 Norte 23 Noroeste 0 1011.5 0.6 54
2019-07-31 09:00:00 19.6 8 Norte 30 Noroeste 0 1011.2 0.9 59
2019-07-31 08:00:00 18.3 11 Norte 28 Norte 0 1011.1 0.7 61
2019-07-31 07:00:00 18.6 9 Norte 32 Noroeste 0 1010.9 0.4 60
2019-07-31 06:00:00 19.1 15 Norte 34 Noroeste 0 1010.3 -0.7 57
2019-07-31 05:00:00 19.6 15 Norte 37 Norte 0 1010.4 -0.9 55
2019-07-31 04:00:00 20.3 16 Noroeste 35 Noroeste 0 1010.5 -1 53
2019-07-31 03:00:00 21.4 17 Norte 37 Norte 0 1011 -0.6 49
2019-07-31 02:00:00 22.7 18 Noroeste 38 Noroeste 0 1011.3 0.4 47
2019-07-31 01:00:00 24.1 18 Noroeste 37 Noroeste 0 1011.5 1.2 45
2019-07-31 00:00:00 25.8 20 Noroeste 40 Noroeste 0 1011.6 1.6 39
2019-07-30 23:00:00 28.8 12 Noroeste 23 Noroeste 0 1010.9 0.8 26
2019-07-30 22:00:00 29.9 7 Norte 21 Noroeste 0 1010.3 -0.2 24
2019-07-30 21:00:00 32 8 Norte 26 Norte 0 1010 -1 23
2019-07-30 20:00:00 32.9 12 Noroeste 26 Noroeste 0 1010.1 -1.5 22
2019-07-30 19:00:00 33.8 11 Norte 24 Noroeste 0 1010.5 -1.6 22
2019-07-30 18:00:00 33.6 12 Noroeste 29 Norte 0 1011 -1.7 22
2019-07-30 17:00:00 33.2 13 Noroeste 26 Norte 0 1011.6 -1.9 23
2019-07-30 16:00:00 32.7 16 Noroeste 38 Noroeste 0 1012.1 -1.8 26
2019-07-30 15:00:00 31.4 15 Noroeste 35 Norte 0 1012.7 -1.4 28
2019-07-30 14:00:00 29.8 16 Noroeste 34 Noroeste 0 1013.5 -0.9 32
2019-07-30 13:00:00 28 14 Norte 33 Norte 0 1013.9 -0.6 35
2019-07-30 12:00:00 25.7 12 Norte 36 Norte 0 1014.1 -0.5 43
2019-07-30 11:00:00 22.7 15 Norte 36 Noroeste 0 1014.4 -0.1 51
2019-07-30 10:00:00 20.2 17 Norte 40 Norte 0 1014.5 0.2 60
2019-07-30 09:00:00 18.1 21 Noroeste 41 Noroeste 0 1014.6 0.6 68
2019-07-30 08:00:00 17.2 17 Noroeste 37 Noroeste 0 1014.5 0.4 69
2019-07-30 07:00:00 17.3 8 Norte 33 Noroeste 0 1014.3 0.4 66
2019-07-30 06:00:00 17.8 15 Noroeste 36 Noroeste 0 1014 0 63
2019-07-30 05:00:00 18.6 15 Noroeste 42 Norte 0 1014.1 0 59
2019-07-30 04:00:00 19.2 15 Noroeste 40 Noroeste 0 1013.9 -0.2 56
2019-07-30 03:00:00 20.3 20 Norte 44 Norte 0 1014 0.6 52
2019-07-30 02:00:00 21.9 13 Noroeste 36 Norte 0 1014.1 1 47
2019-07-30 01:00:00 23.6 12 Noroeste 31 Norte 0 1014.1 2.2 43
2019-07-30 00:00:00 25.3 13 Noroeste 32 Noroeste 0 1013.4 2.2 39
2019-07-29 23:00:00 27.1 14 Noroeste 31 Norte 0 1013.1 2 36
2019-07-29 22:00:00 28.8 13 Noroeste 31 Nordeste 0 1011.9 0.6 35
2019-07-29 21:00:00 30.5 12 Noroeste 32 Norte 0 1011.2 -0.4 32
2019-07-29 20:00:00 31.6 10 Norte 21 Noroeste 0 1011.1 -0.7 34
2019-07-29 19:00:00 27.7 12 Sudoeste 28 Sudoeste 0 1011.3 -0.9 51
2019-07-29 18:00:00 28.7 18 Sudoeste 30 Oeste 0 1011.6 -0.9 50
2019-07-29 17:00:00 29.1 17 Sudoeste 28 Sudoeste 0 1011.8 -1 50
2019-07-29 16:00:00 28.9 16 Sudoeste 28 Sudoeste 0 1012.2 -1.2 50
2019-07-29 15:00:00 28.2 16 Sudoeste 25 Sudoeste 0 1012.5 -1.2 47
2019-07-29 14:00:00 30 8 Noroeste 23 Norte 0 1012.8 -0.6 45
2019-07-29 13:00:00 27.7 11 Noroeste 25 Norte 0 1013.4 0.6 50
2019-07-29 12:00:00 25.5 12 Norte 35 Noroeste 0 1013.7 1.1 57
2019-07-29 11:00:00 23.8 13 Norte 31 Noroeste 0 1013.4 1.6 60
2019-07-29 10:00:00 22.4 10 Norte 42 Noroeste 0 1012.8 1.5 63
2019-07-29 09:00:00 19.9 16 Norte 39 Noroeste 0 1012.6 1.9 74
2019-07-29 08:00:00 19.2 20 Noroeste 43 Norte 0 1011.8 1.2 70
2019-07-29 07:00:00 19.1 18 Noroeste 39 Noroeste 0 1011.3 0.8 64
2019-07-29 06:00:00 19.6 16 Noroeste 33 Noroeste 0 1010.7 0 61
2019-07-29 05:00:00 20.4 15 Noroeste 35 Noroeste 0 1010.6 0 61
2019-07-29 04:00:00 21.1 15 Noroeste 31 Norte 0 1010.5 -0.2 59
2019-07-29 03:00:00 21.8 17 Noroeste 34 Norte 0 1010.7 0.2 59
2019-07-29 02:00:00 22.6 15 Noroeste 32 Norte 0 1010.6 0.3 55
2019-07-29 01:00:00 24 15 Noroeste 30 Norte 0 1010.7 1.2 53
2019-07-29 00:00:00 24.8 11 Noroeste 26 Norte 0 1010.5 1.5 55
2019-07-28 23:00:00 22.8 5 Noroeste 15 Noroeste 0 1010.3 1.4 69
2019-07-28 22:00:00 23.1 7 Sudoeste 28 Oeste 0 1009.5 0.4 61
2019-07-28 21:00:00 25.1 16 Oeste 32 Oeste 0 1009 -0.1 51
2019-07-28 20:00:00 26.9 18 Oeste 30 Oeste 0 1008.9 -0.7 49
2019-07-28 19:00:00 28 15 Sudoeste 28 Sudoeste 0 1009.1 -1.1 48
2019-07-28 18:00:00 28 17 Sudoeste 31 Sudoeste 0 1009.1 -1.4 47
2019-07-28 17:00:00 27.6 18 Sudoeste 34 Sudoeste 0 1009.6 -1.2 48
2019-07-28 16:00:00 26.6 18 Sudoeste 32 Sudoeste 0 1010.2 -0.8 51
2019-07-28 15:00:00 26.3 21 Sudoeste 33 Sudoeste 0 1010.5 -0.5 53
2019-07-28 14:00:00 27.1 15 Sudoeste 26 Sudoeste 0 1010.8 -0.5 50
2019-07-28 13:00:00 27.2 13 Sudoeste 22 Sudoeste 0 1011 -0.4 51
2019-07-28 12:00:00 26.1 8 Noroeste 17 Noroeste 0 1011 0.1 53
2019-07-28 11:00:00 24.3 5 Noroeste 21 Noroeste 0 1011.3 0.4 61
2019-07-28 10:00:00 21.9 9 Noroeste 24 Noroeste 0 1011.4 0.6 70
2019-07-28 09:00:00 20.4 11 Noroeste 27 Norte 0 1010.9 0.3 78
2019-07-28 08:00:00 19.6 9 Norte 19 Norte 0 1010.9 0.2 82
2019-07-28 07:00:00 19.3 7 Noroeste 18 Noroeste 0 1010.8 -0.1 82
2019-07-28 06:00:00 19.3 7 Noroeste 18 Noroeste 0 1010.6 -0.6 81
2019-07-28 05:00:00 19.5 4 Noroeste 10 Noroeste 0 1010.7 -0.8 78
2019-07-28 04:00:00 19.7 5 Noroeste 14 Noroeste 0 1010.9 -0.9 74
2019-07-28 03:00:00 19.9 5 Noroeste 15 Norte 0 1011.2 -0.6 72
2019-07-28 02:00:00 20.4 5 Noroeste 14 Noroeste 0 1011.5 0.1 69
2019-07-28 01:00:00 20.8 5 Noroeste 18 Norte 0 1011.8 1 68
2019-07-28 00:00:00 21.8 7 Noroeste 17 Noroeste 0 1011.8 1.5 62
2019-07-27 23:00:00 23 9 Noroeste 18 Noroeste 0 1011.4 1.3 57
2019-07-26 12:00:00 26 9 Noroeste 23 Noroeste 0 1015.6 0.2 49
2019-07-26 11:00:00 23.6 11 Norte 30 Norte 0 1015.7 0.8 55
2019-07-26 10:00:00 21.9 12 Norte 33 Noroeste 0 1015.5 0.8 64
2019-07-26 09:00:00 19.9 12 Norte 29 Norte 0 1015.4 1.3 72
2019-07-26 08:00:00 19 9 Norte 27 Noroeste 0 1014.9 1.1 75
2019-07-26 07:00:00 19.7 14 Noroeste 32 Norte 0 1014.7 1.2 71
2019-07-26 06:00:00 20.6 14 Noroeste 31 Noroeste 0 1014.1 0.8 68
2019-07-26 05:00:00 21.3 14 Noroeste 36 Noroeste 0 1013.8 0.3 68
2019-07-26 04:00:00 21.8 16 Noroeste 35 Noroeste 0 1013.5 -0.2 68
2019-07-26 03:00:00 22.6 15 Noroeste 36 Noroeste 0 1013.3 -0.4 68
2019-07-26 02:00:00 23.5 15 Norte 34 Noroeste 0 1013.5 0.2 67
2019-07-26 01:00:00 24 16 Noroeste 37 Norte 0 1013.7 1.3 66
2019-07-26 00:00:00 24.4 19 Noroeste 43 Noroeste 0 1013.7 1.9 64
2019-07-25 23:00:00 25.9 18 Noroeste 35 Noroeste 0 1013.3 1.5 58
2019-07-25 22:00:00 25.8 4 Oeste 18 Sudoeste 0 1012.4 0.5 67
2019-07-25 21:00:00 27.1 12 Sudoeste 26 Sudoeste 0 1011.8 -0.7 61
2019-07-25 20:00:00 28.9 18 Sudoeste 32 Sudoeste 0 1011.8 -1 54
2019-07-25 19:00:00 27.5 16 Sudoeste 32 Sudoeste 0 1011.9 -1.3 59
2019-07-25 18:00:00 28.6 20 Sudoeste 34 Sudoeste 0 1012.5 -0.8 52
2019-07-25 17:00:00 29.2 20 Sudoeste 32 Oeste 0 1012.8 -0.7 51
2019-07-25 16:00:00 29.5 18 Sudoeste 28 Sudoeste 0 1013.2 -0.4 51
2019-07-25 15:00:00 28.4 16 Sudoeste 26 Sudoeste 0 1013.3 -0.4 54
2019-07-25 14:00:00 29.8 12 Sudoeste 21 Sudoeste 0 1013.5 -0.2 50
2019-07-25 13:00:00 30 8 Noroeste 21 Noroeste 0 1013.6 -0.4 47
2019-07-25 12:00:00 28 9 Noroeste 23 Noroeste 0 1013.7 0.3 56
2019-07-25 11:00:00 25.4 9 Noroeste 23 Noroeste 0 1013.7 0.7 63
2019-07-25 10:00:00 23.5 9 Noroeste 22 Noroeste 0 1014 1.5 71
2019-07-25 09:00:00 21.5 13 Norte 23 Norte 0 1013.4 1.5 79
2019-07-25 08:00:00 21.3 7 Norte 18 Noroeste 0 1013 0.9 79
2019-07-25 07:00:00 21.4 5 Norte 17 Norte 0 1012.5 0.3 78
2019-07-25 06:00:00 21.6 6 Norte 19 Norte 0 1011.9 -1 75
2019-07-25 05:00:00 22.2 7 Norte 26 Noroeste 0 1012.1 -1.2 71
2019-07-25 04:00:00 22.7 10 Noroeste 25 Norte 0 1012.2 -0.8 68
2019-07-25 03:00:00 23.6 8 Norte 23 Noroeste 0 1012.9 0.5 62
2019-07-25 02:00:00 24.9 7 Norte 19 Norte 0 1013.3 1.3 55
2019-07-25 01:00:00 25.2 4 Norte 14 Norte 0 1013 1.6 46
2019-07-25 00:00:00 25.6 3 Noroeste 12 Noroeste 0 1012.4 1.4 63
2019-07-24 23:00:00 25.8 0 Calma 8 Sudoeste 0 1012 1 69
2019-07-24 22:00:00 26.4 6 Sudoeste 18 Sudoeste 0 1011.4 0.3 67
2019-07-24 21:00:00 27.7 8 Sudoeste 16 Sudoeste 0 1011 -0.7 62
2019-07-24 20:00:00 28.3 11 Sudoeste 17 Sudoeste 0 1011 -1.4 62
2019-07-24 19:00:00 28.8 11 Sudoeste 19 Oeste 0 1011.1 -1.5 60
2019-07-24 18:00:00 28.1 12 Sudoeste 19 Sudoeste 0 1011.7 -1.3 62
2019-07-24 17:00:00 27.9 12 Sudoeste 22 Sudoeste 0 1012.4 -1.3 62
2019-07-24 16:00:00 27.6 14 Sudoeste 23 Sudoeste 0 1012.6 -1.2 63
2019-07-24 15:00:00 29.2 13 Sudoeste 21 Sudoeste 0 1013 -0.7 54
2019-07-24 14:00:00 28.8 12 Sudoeste 21 Sur 0 1013.7 0.4 53
2019-07-24 13:00:00 28.4 10 Sudoeste 19 Sur 0 1013.8 0.5 51
2019-07-24 12:00:00 28.9 10 Sudoeste 16 Sudoeste 0 1013.7 0.5 43
2019-07-24 11:00:00 27.8 3 Norte 13 Norte 0 1013.3 0.3 43
2019-07-24 10:00:00 25.1 5 Norte 18 Noroeste 0 1013.3 0.6 48
2019-07-24 09:00:00 23.5 6 Noroeste 19 Norte 0 1013.2 0.6 55
2019-07-24 08:00:00 22.4 7 Norte 23 Norte 0 1013 0.3 58
2019-07-24 07:00:00 23 8 Norte 19 Norte 0 1012.7 -0.3 56
2019-07-24 06:00:00 23.4 7 Norte 17 Noroeste 0 1012.6 -0.9 57
2019-07-24 05:00:00 22.4 4 Norte 7 Norte 0 1012.7 -1.3 65
2019-07-24 04:00:00 22.8 2 Nordeste 13 Norte 0 1013 -1.2 63
2019-07-24 03:00:00 23 2 Noroeste 9 Noroeste 0 1013.5 -0.2 63
2019-07-24 02:00:00 23.4 0 Calma 10 Norte 0 1014 0.8 66
2019-07-24 01:00:00 23.7 0 Calma 4 Norte 0 1014.2 1.6 87
2019-07-24 00:00:00 24.3 4 Sur 6 Sur 0 1013.7 1.4 83
2019-07-23 23:00:00 25.1 0 Calma 8 Sudoeste 0 1013.2 0.8 80
2019-07-23 22:00:00 25.7 6 Sudoeste 12 Sudoeste 0 1012.6 -0.1 77
2019-07-23 21:00:00 27.2 6 Sudoeste 15 Sudoeste 0 1012.3 -0.8 68
2019-07-23 20:00:00 28.8 8 Sudoeste 18 Sudoeste 0 1012.4 -1.3 63
2019-07-23 19:00:00 28.8 10 Sudoeste 17 Sudoeste 0 1012.7 -1.4 60
2019-07-23 18:00:00 29.6 9 Sudoeste 17 Sudoeste 0 1013.1 -1.3 57
2019-07-23 17:00:00 29.5 10 Sudoeste 21 Sudoeste 0 1013.7 -0.9 57
2019-07-23 16:00:00 30.4 11 Sudoeste 24 Sudoeste 0 1014.1 -0.6 56
2019-07-23 15:00:00 28.3 11 Sudoeste 22 Sudoeste 0 1014.4 -0.3 63
2019-07-23 14:00:00 28 12 Sudoeste 19 Sur 0 1014.6 -0.1 65
2019-07-23 13:00:00 28.5 9 Sur 16 Sudoeste 0 1014.7 0.1 63
2019-07-23 12:00:00 28 10 Sur 17 Sur 0 1014.7 0.6 67
2019-07-23 11:00:00 27.1 9 Sudoeste 16 Sur 0 1014.7 0.7 68
2019-07-23 10:00:00 27.1 6 Sur 12 Sur 0 1014.6 0.8 66
2019-07-23 09:00:00 25.1 0 Calma 2 Noroeste 0 1014.1 0.6 77
2019-07-23 08:00:00 22.6 0 Calma 4 Norte 0 1014 0.1 86
2019-07-23 07:00:00 22.8 0 Calma 6 Noroeste 0 1013.8 -0.2 85
2019-07-23 06:00:00 23 0 Calma 3 Sudoeste 0 1013.5 -1.1 81
2019-07-23 05:00:00 23.4 0 Calma 7 Sudoeste 0 1013.9 -0.9 80
2019-07-23 04:00:00 24 0 Calma 5 Este 0 1014 -1 80
2019-07-23 03:00:00 24.3 0 Calma 6 Sur 0 1014.6 -0.3 77
2019-07-23 02:00:00 24.8 3 Sudoeste 7 Oeste 0 1014.8 0.5 74
2019-07-23 01:00:00 25 3 Sudoeste 10 Sudoeste 0 1015 1.3 74
2019-07-23 00:00:00 25.5 7 Sudoeste 15 Sudoeste 0 1014.9 1.7 72
2019-07-22 23:00:00 25.5 8 Sudoeste 20 Sudoeste 0 1014.3 1.2 72
2019-07-22 22:00:00 26.4 10 Sudoeste 23 Sudoeste 0 1013.7 0.5 65
2019-07-22 21:00:00 27.4 13 Sudoeste 23 Sudoeste 0 1013.2 -0.8 61
2019-07-22 20:00:00 30 12 Sudoeste 22 Oeste 0 1013.1 -1.5 54
2019-07-22 19:00:00 31.1 12 Sudoeste 20 Sudoeste 0 1013.2 -2.1 50
2019-07-22 18:00:00 32 11 Sudoeste 22 Sudoeste 0 1014 -1.9 50
2019-07-22 17:00:00 31.6 12 Sudoeste 19 Sudoeste 0 1014.6 -1.8 48
2019-07-22 16:00:00 31.6 11 Sur 20 Sur 0 1015.3 -1.5 48
2019-07-22 15:00:00 31.7 12 Sur 22 Sur 0 1015.9 -0.9 50
2019-07-22 14:00:00 29.9 11 Sur 20 Sur 0 1016.4 -0.1 53
2019-07-22 13:00:00 29.6 8 Sur 17 Sudeste 0 1016.8 0.4 55
2019-07-22 12:00:00 29.3 6 Sudeste 17 Sudeste 0 1016.8 0.7 57
2019-07-22 11:00:00 28.6 8 Sur 16 Sudeste 0 1016.5 0.8 59
2019-07-22 10:00:00 26.9 3 Noroeste 7 Noroeste 0 1016.4 0.8 58
2019-07-22 09:00:00 24.3 4 Norte 9 Noroeste 0 1016.1 0.4 62
2019-07-22 08:00:00 21.1 3 Norte 6 Norte 0 1015.7 -0.1 79
2019-07-22 07:00:00 21 0 Calma 4 Nordeste 0 1015.6 -0.5 81
2019-07-22 06:00:00 21.3 0 Calma 3 Nordeste 0 1015.7 -0.7 79
2019-07-22 05:00:00 21.7 0 Calma 4 Noroeste 0 1015.8 -0.7 77
2019-07-22 04:00:00 22.1 2 Noroeste 8 Oeste 0 1016.1 0.1 74
2019-07-22 03:00:00 22.5 0 Calma 5 Sur 0 1016.4 0.9 69
2019-07-22 02:00:00 23 3 Sur 10 Sur 0 1016.5 1.9 71
2019-07-22 01:00:00 23.4 5 Sur 9 Sur 0 1016 1.9 71
2019-07-22 00:00:00 23.9 3 Sur 6 Sudoeste 0 1015.5 1.7 67
2019-07-21 23:00:00 25.1 4 Oeste 13 Oeste 0 1014.6 0.6 58
2019-07-21 22:00:00 25.4 5 Sudoeste 12 Sudoeste 0 1014.1 -0.1 52
2019-07-21 21:00:00 27.3 5 Sudoeste 14 Oeste 0 1013.8 -1 49
2019-07-21 20:00:00 28.4 9 Sudoeste 17 Sudoeste 0 1014 -1.4 47
2019-07-21 19:00:00 28.3 10 Sudoeste 19 Sudoeste 0 1014.2 -1.5 45
2019-07-21 18:00:00 28.2 13 Sudoeste 22 Sudoeste 0 1014.8 -1.2 46
2019-07-21 17:00:00 28.7 13 Sudoeste 23 Sudoeste 0 1015.4 -0.6 45
2019-07-21 16:00:00 28.9 13 Sudoeste 22 Sudoeste 0 1015.7 -0.1 45
2019-07-21 15:00:00 28.3 12 Sudoeste 23 Sudoeste 0 1016 0.4 46
2019-07-21 14:00:00 29.2 14 Sudoeste 25 Sudoeste 0 1016 0.5 44
2019-07-21 13:00:00 32.4 5 Noroeste 21 Noroeste 0 1015.8 0.4 35
2019-07-21 12:00:00 29.3 9 Norte 21 Norte 0 1015.6 0.3 42
2019-07-21 11:00:00 26 9 Noroeste 27 Noroeste 0 1015.5 0.1 48
2019-07-21 10:00:00 23 12 Norte 32 Norte 0 1015.4 0.5 53
2019-07-21 09:00:00 21.1 18 Norte 33 Norte 0 1015.3 0.9 57
2019-07-21 08:00:00 20.5 8 Norte 23 Norte 0 1015.4 1.3 59
2019-07-21 07:00:00 21.5 4 Nordeste 29 Noroeste 0 1014.9 0.7 56
2019-07-21 06:00:00 22.1 13 Noroeste 36 Norte 0 1014.4 0.1 56
2019-07-21 05:00:00 22.8 14 Norte 36 Noroeste 0 1014.1 -0.2 56
2019-07-21 04:00:00 23.7 14 Noroeste 35 Noroeste 0 1014.2 0.2 55
2019-07-21 03:00:00 24.8 16 Noroeste 36 Norte 0 1014.3 0.7 54
2019-07-21 02:00:00 26.2 15 Noroeste 34 Norte 0 1014.3 1.4 50
2019-07-21 01:00:00 28.1 16 Noroeste 33 Norte 0 1014 2 45
2019-07-21 00:00:00 30.1 15 Noroeste 31 Norte 0 1013.6 2.1 42